VIQ weather

Neillsville Municipal Airport
Neillsville, Wisconsin, United States

Public forecast

Using degrees Fahrenheit for public forecast. Weather courtesy of forecast.io.

Closest aviation weather report (METAR) to Neillsville Municipal Airport

Closest report is Marshfield Municipal Airport, 14.6 nm (27.0 km) ENE. Retrieved 2019/10/18 13:54 UTC (1 hour ago):

KMFI 181354Z AUTO 16010KT 10SM CLR 05/02 A2995 RMK AO2 SLP152 T00500022

Closest aviation forecast (TAF) to Neillsville Municipal Airport

Closest forecast is Central Wisconsin Airport, 38.4 nm (71.2 km) ENE. Retrieved 2019/10/18 12:36 UTC (2 hours ago):

TAF KCWA 181134Z 1812/1912 14005KT P6SM SCT150 FM181400 15009G20KT P6SM SCT050 FM190200 17008G17KT P6SM SCT250 WS020/20040KT FM191000 18007KT P6SM BKN100 WS015/22030KT